Latest Coastal Weather Observations for Portland Harbour

IDV60701

Issued at 2:25 pm EST Friday 25 April 2014 (issued every 10 minutes, with the page automatically refreshed every 10 minutes)

About coastal observations | Map of coastal stations | Coastal observations for VIC | Marine services | Other Formats
Station Details ID: 090192 Name: PORTLAND NTC AWS Lat: -38.34 Lon: 141.61 Height: 0.0 m
Data from the previous 72 hours. | See also: Recent months for locations in Victoria
Date/Time
EST
Temp

°C
Wind Pressure Rain
since 9am
mm
Weather Cloud Vis
km
Sea
Height
m
Swell
Dir
 
Speed
knots
Gust
knots
hPa Trend Height
m
Period
s
Dir
25/02:00pm 17.0 NNW 12 16 1012.7 - - - - - - - - -
25/01:30pm 16.4 N 12 15 1013.3 - - - - - - - - -
25/01:00pm 16.2 N 12 19 1014.2 - - - - - - - - -
25/12:30pm 15.9 N 12 18 1015.0 - - - - - - - - -
25/12:00pm 15.1 N 12 16 1015.5 - - - - - - - - -
25/11:30am 14.4 N 11 15 1016.0 - - - - - - - - -
25/11:00am 13.2 N 14 16 1016.5 - - - - - - - - -
25/10:30am 12.3 N 13 17 1017.3 - - - - - - - - -
25/10:00am 11.7 N 10 12 1018.1 - - - - - - - - -
25/09:30am 11.1 N 7 9 1018.7 - - - - - - - - -
25/09:00am 10.7 N 8 11 1018.8 - - - - - - - - -
25/08:30am 10.0 N 7 9 1018.8 - - - - - - - - -
25/08:00am 8.9 NNW 4 7 1018.5 - - - - - - - - -
25/07:30am 6.9 SW 3 4 1018.7 - - - - - - - - -
25/07:00am 8.7 NNW 3 5 1018.9 - - - - - - - - -
25/06:30am 8.8 NNW 4 7 1019.1 - - - - - - - - -
25/06:00am 9.5 N 7 9 1019.3 - - - - - - - - -
25/05:30am 6.8 WNW 4 5 1019.5 - - - - - - - - -
25/05:00am 6.0 W 3 6 1019.7 - - - - - - - - -
25/04:30am 8.9 W 2 6 1019.2 - - - - - - - - -
25/04:00am 6.4 W 2 3 1019.5 - - - - - - - - -
25/03:30am 6.4 W 2 4 1019.8 - - - - - - - - -
25/03:00am 6.5 W 3 4 1020.2 - - - - - - - - -
25/02:30am 6.8 W 3 4 1020.3 - - - - - - - - -
25/02:00am 6.9 WSW 2 4 1020.5 - - - - - - - - -
25/01:30am 7.2 WSW 2 3 1020.5 - - - - - - - - -
25/01:00am 6.8 WSW 3 4 1020.6 - - - - - - - - -
25/12:30am 7.2 WSW 3 4 1020.6 - - - - - - - - -
25/12:00am 7.8 WSW 3 4 1020.6 - - - - - - - - -
 
Date/Time
EST
Temp

°C
Wind Pressure Rain
since 9am
mm
Weather Cloud Vis
km
Sea
Height
m
Swell
Dir
 
Speed
knots
Gust
knots
hPa Trend Height
m
Period
s
Dir
24/11:30pm 7.7 WSW 3 4 1020.9 - - - - - - - - -
24/11:00pm 8.1 WSW 3 4 1020.9 - - - - - - - - -
24/10:30pm 8.9 SW 3 3 1021.0 - - - - - - - - -
24/10:00pm 9.1 WSW 3 4 1021.3 - - - - - - - - -
24/09:30pm 9.3 WSW 3 3 1021.2 - - - - - - - - -
24/09:00pm 10.4 SW 2 3 1021.1 - - - - - - - - -
24/08:30pm 11.2 SW 1 2 1021.0 - - - - - - - - -
24/08:00pm 12.1 SW 2 3 1020.9 - - - - - - - - -
24/07:30pm 12.3 SSW 3 3 1020.6 - - - - - - - - -
24/07:00pm 12.8 S 4 5 1020.4 - - - - - - - - -
24/06:30pm 13.2 SW 4 6 1020.1 - - - - - - - - -
24/06:00pm 13.3 SSW 4 5 1019.7 - - - - - - - - -
24/05:30pm 13.3 S 5 8 1019.4 - - - - - - - - -
24/05:00pm 13.6 S 7 9 1019.2 - - - - - - - - -
24/04:30pm 13.9 S 9 12 1019.0 - - - - - - - - -
24/04:00pm 13.7 S 10 14 1018.7 - - - - - - - - -
24/03:30pm 14.1 S 10 13 1018.5 - - - - - - - - -
24/03:00pm 14.2 S 9 12 1018.4 - - - - - - - - -
24/02:30pm 14.1 S 11 14 1018.3 - - - - - - - - -
24/02:00pm 13.9 S 12 16 1018.3 - - - - - - - - -
24/01:30pm 14.0 SSW 11 15 1018.3 - - - - - - - - -
24/01:00pm 14.0 SSW 14 17 1018.4 - - - - - - - - -
24/12:30pm 14.2 SW 12 18 1018.3 - - - - - - - - -
24/12:00pm 14.3 S 14 18 1018.1 - - - - - - - - -
24/11:30am 14.4 SW 13 19 1018.1 - - - - - - - - -
24/11:00am 14.3 SW 15 21 1017.9 - - - - - - - - -
24/10:30am 14.6 SW 13 21 1017.7 - - - - - - - - -
24/10:00am 14.2 SW 11 19 1017.5 - - - - - - - - -
24/09:30am 14.0 SW 12 19 1017.1 - - - - - - - - -
24/09:00am 14.0 SW 10 15 1016.7 - - - - - - - - -
24/08:30am 13.7 SW 11 15 1016.2 - - - - - - - - -
24/08:00am 13.5 SW 12 18 1015.5 - - - - - - - - -
24/07:30am 13.4 SW 14 21 1014.7 - - - - - - - - -
24/07:00am 13.8 SW 15 24 1014.1 - - - - - - - - -
24/06:30am 13.5 SW 11 17 1013.4 - - - - - - - - -
24/06:13am 13.9 SW 15 25 1013.2 - - - - - - - - -
24/06:00am 14.0 SW 15 22 1012.9 - - - - - - - - -
24/05:30am 14.2 SW 17 26 1012.0 - - - - - - - - -
24/05:08am 14.5 SW 15 26 1011.5 - - - - - - - - -
24/05:00am 14.6 SW 16 23 1011.2 - - - - - - - - -
24/04:30am 14.4 SW 14 21 1010.5 - - - - - - - - -
24/04:05am 14.1 SW 16 27 1010.1 - - - - - - - - -
24/04:00am 14.0 SW 15 21 1009.9 - - - - - - - - -
24/03:30am 14.1 W 14 22 1009.1 - - - - - - - - -
24/03:00am 14.8 NW 15 24 1008.5 - - - - - - - - -
24/02:30am 14.8 NW 11 19 1008.7 - - - - - - - - -
24/02:00am 14.9 NW 12 18 1008.6 - - - - - - - - -
24/01:30am 14.8 NW 12 17 1009.0 - - - - - - - - -
24/01:00am 14.7 NW 13 21 1009.2 - - - - - - - - -
24/12:30am 14.8 NW 12 19 1009.5 - - - - - - - - -
24/12:00am 14.6 NW 11 17 1009.8 - - - - - - - - -
 
Date/Time
EST
Temp

°C
Wind Pressure Rain
since 9am
mm
Weather Cloud Vis
km
Sea
Height
m
Swell
Dir
 
Speed
knots
Gust
knots
hPa Trend Height
m
Period
s
Dir
23/11:30pm 14.5 NW 11 16 1010.2 - - - - - - - - -
23/11:00pm 13.4 NNW 11 14 1010.5 - - - - - - - - -
23/10:30pm 13.5 NW 10 16 1011.1 - - - - - - - - -
23/10:00pm 15.2 NW 13 22 1011.2 - - - - - - - - -
23/09:30pm 14.8 NNW 10 15 1011.1 - - - - - - - - -
23/09:00pm 14.8 NNW 10 14 1011.3 - - - - - - - - -
23/08:30pm 15.2 NW 9 13 1011.4 - - - - - - - - -
23/08:00pm 15.0 NW 7 12 1011.8 - - - - - - - - -
23/07:30pm 14.8 NW 5 8 1011.8 - - - - - - - - -
23/07:00pm 15.2 NNW 6 8 1011.8 - - - - - - - - -
23/06:30pm 15.7 NNW 6 8 1011.6 - - - - - - - - -
23/06:00pm 16.2 NNW 7 9 1011.5 - - - - - - - - -
23/05:30pm 16.7 WNW 7 10 1011.6 - - - - - - - - -
23/05:00pm 17.1 NW 7 10 1011.6 - - - - - - - - -
23/04:30pm 17.6 NNW 11 14 1011.6 - - - - - - - - -
23/04:00pm 17.5 NNW 11 15 1011.9 - - - - - - - - -
23/03:30pm 17.5 NW 11 17 1012.1 - - - - - - - - -
23/03:00pm 17.3 NW 12 20 1012.4 - - - - - - - - -
23/02:30pm 17.1 NW 12 19 1012.7 - - - - - - - - -
23/02:00pm 16.9 WNW 12 18 1012.9 - - - - - - - - -
23/01:30pm 16.5 NW 13 19 1013.3 - - - - - - - - -
23/01:00pm 16.2 NW 13 20 1014.0 - - - - - - - - -
23/12:30pm 15.6 NW 11 15 1014.5 - - - - - - - - -
23/12:00pm 15.4 NNW 11 16 1015.0 - - - - - - - - -
23/11:30am 14.4 NNW 11 15 1015.3 - - - - - - - - -
23/11:00am 13.8 N 11 14 1015.6 - - - - - - - - -
23/10:30am 13.2 N 10 15 1016.0 - - - - - - - - -
23/10:00am 13.2 NNW 9 13 1016.4 - - - - - - - - -
23/09:30am 12.9 NNW 8 11 1016.6 - - - - - - - - -
23/09:00am 11.7 NW 7 11 1016.5 - - - - - - - - -
23/08:30am 10.1 WNW 6 9 1016.5 - - - - - - - - -
23/08:00am 9.7 NW 6 9 1016.2 - - - - - - - - -
23/07:30am 9.7 NW 6 10 1016.0 - - - - - - - - -
23/07:00am 9.6 WNW 6 8 1015.8 - - - - - - - - -
23/06:30am 9.1 W 7 8 1016.0 - - - - - - - - -
23/06:00am 9.3 WNW 7 8 1016.1 - - - - - - - - -
23/05:30am 9.2 W 7 9 1016.2 - - - - - - - - -
23/05:00am 8.9 W 7 8 1016.1 - - - - - - - - -
23/04:30am 9.1 W 6 8 1015.9 - - - - - - - - -
23/04:00am 9.7 SW 2 5 1015.8 - - - - - - - - -
23/03:30am 10.3 N 1 2 1015.6 - - - - - - - - -
23/03:00am 10.4 WSW 2 4 1016.0 - - - - - - - - -
23/02:30am 11.0 WSW 1 2 1016.4 - - - - - - - - -
23/02:00am 11.4 W 4 5 1016.7 - - - - - - - - -
23/01:30am 12.6 NW 5 8 1016.9 - - - - - - - - -
23/01:00am 12.6 NW 6 8 1017.0 - - - - - - - - -
23/12:30am 11.3 W 4 6 1017.3 - - - - - - - - -
23/12:00am 11.6 NW 1 3 1017.4 - - - - - - - - -
 
Date/Time
EST
Temp

°C
Wind Pressure Rain
since 9am
mm
Weather Cloud Vis
km
Sea
Height
m
Swell
Dir
 
Speed
knots
Gust
knots
hPa Trend Height
m
Period
s
Dir
22/11:30pm 12.0 WNW 4 5 1017.5 - - - - - - - - -
22/11:00pm 11.4 W 5 8 1017.6 - - - - - - - - -
22/10:30pm 11.4 W 7 9 1017.8 - - - - - - - - -
22/10:00pm 10.7 W 6 10 1017.8 - - - - - - - - -
22/09:30pm 11.2 W 5 6 1017.7 - - - - - - - - -
22/09:00pm 11.9 W 2 4 1017.6 - - - - - - - - -
22/08:30pm 11.9 W 3 5 1017.5 - - - - - - - - -
22/08:00pm 12.3 W 4 5 1017.4 - - - - - - - - -
22/07:30pm 13.1 WNW 4 5 1017.1 - - - - - - - - -
22/07:00pm 13.6 W 4 5 1017.0 - - - - - - - - -
22/06:30pm 14.2 W 5 6 1016.6 - - - - - - - - -
22/06:00pm 14.8 WSW 4 6 1016.4 - - - - - - - - -
22/05:30pm 15.2 SW 4 6 1016.2 - - - - - - - - -
22/05:00pm 15.5 SW 7 11 1015.9 - - - - - - - - -
22/04:30pm 15.5 SW 10 16 1015.9 - - - - - - - - -
22/04:00pm 16.1 SW 6 9 1015.7 - - - - - - - - -
22/03:30pm 16.2 SW 8 12 1015.4 - - - - - - - - -
22/03:00pm 16.6 W 6 10 1015.3 - - - - - - - - -
22/02:30pm 16.3 WSW 8 12 1015.2 - - - - - - - - -

Other Formats:

Comma delimited format used in spreadsheet applications
http://www.bom.gov.au/fwo/IDV60701/IDV60701.95826.axf

JavaScript Object Notation format (JSON) in row-major order
http://www.bom.gov.au/fwo/IDV60701/IDV60701.95826.json